sensor_id;sensor_type;location;lat;lon;timestamp;pressure;altitude;pressure_sealevel;temperature;humidity
22104;BME280;11218;48.886;9.426;2022-11-12T00:01:04;99648.03;;;6.94;90.07
22104;BME280;11218;48.886;9.426;2022-11-12T00:03:31;99643.69;;;6.93;89.73
22104;BME280;11218;48.886;9.426;2022-11-12T00:05:59;99642.03;;;6.92;89.18
22104;BME280;11218;48.886;9.426;2022-11-12T00:08:28;99648.41;;;6.91;90.21
22104;BME280;11218;48.886;9.426;2022-11-12T00:10:56;99643.44;;;6.88;89.67
22104;BME280;11218;48.886;9.426;2022-11-12T00:13:24;99645.84;;;6.83;89.34
22104;BME280;11218;48.886;9.426;2022-11-12T00:15:52;99643.53;;;6.80;90.41
22104;BME280;11218;48.886;9.426;2022-11-12T00:18:20;99641.41;;;6.75;89.43
22104;BME280;11218;48.886;9.426;2022-11-12T00:20:48;99656.81;;;6.73;88.91
22104;BME280;11218;48.886;9.426;2022-11-12T00:23:16;99647.72;;;6.68;89.36
22104;BME280;11218;48.886;9.426;2022-11-12T00:25:45;99649.28;;;6.62;89.79
22104;BME280;11218;48.886;9.426;2022-11-12T00:28:13;99652.78;;;6.63;89.89
22104;BME280;11218;48.886;9.426;2022-11-12T00:30:41;99643.66;;;6.57;90.97
22104;BME280;11218;48.886;9.426;2022-11-12T00:33:09;99648.53;;;6.53;90.47
22104;BME280;11218;48.886;9.426;2022-11-12T00:35:36;99652.69;;;6.56;92.43
22104;BME280;11218;48.886;9.426;2022-11-12T00:38:04;99649.00;;;6.57;90.82
22104;BME280;11218;48.886;9.426;2022-11-12T00:40:32;99648.00;;;6.58;91.76
22104;BME280;11218;48.886;9.426;2022-11-12T00:43:01;99646.31;;;6.57;92.12
22104;BME280;11218;48.886;9.426;2022-11-12T00:45:29;99644.13;;;6.61;91.24
22104;BME280;11218;48.886;9.426;2022-11-12T00:47:57;99632.03;;;6.50;91.04
22104;BME280;11218;48.886;9.426;2022-11-12T00:50:25;99629.53;;;6.48;92.74
22104;BME280;11218;48.886;9.426;2022-11-12T00:52:53;99637.38;;;6.50;92.76
22104;BME280;11218;48.886;9.426;2022-11-12T00:55:21;99634.53;;;6.51;92.93
22104;BME280;11218;48.886;9.426;2022-11-12T00:57:49;99645.03;;;6.53;92.52
22104;BME280;11218;48.886;9.426;2022-11-12T01:00:19;99641.44;;;6.46;91.72
22104;BME280;11218;48.886;9.426;2022-11-12T01:02:47;99645.31;;;6.43;91.87
22104;BME280;11218;48.886;9.426;2022-11-12T01:05:18;99653.31;;;6.43;92.47
22104;BME280;11218;48.886;9.426;2022-11-12T01:07:46;99647.16;;;6.43;92.08
22104;BME280;11218;48.886;9.426;2022-11-12T01:10:21;99653.50;;;6.42;92.69
22104;BME280;11218;48.886;9.426;2022-11-12T01:12:49;99647.88;;;6.37;92.08
22104;BME280;11218;48.886;9.426;2022-11-12T01:15:16;99641.69;;;6.36;92.45
22104;BME280;11218;48.886;9.426;2022-11-12T01:17:46;99635.34;;;6.37;92.46
22104;BME280;11218;48.886;9.426;2022-11-12T01:20:14;99628.16;;;6.38;92.54
22104;BME280;11218;48.886;9.426;2022-11-12T01:22:42;99631.09;;;6.43;93.31
22104;BME280;11218;48.886;9.426;2022-11-12T01:25:10;99633.41;;;6.46;91.96
22104;BME280;11218;48.886;9.426;2022-11-12T01:27:38;99632.75;;;6.44;91.71
22104;BME280;11218;48.886;9.426;2022-11-12T01:30:06;99623.63;;;6.38;91.60
22104;BME280;11218;48.886;9.426;2022-11-12T01:32:35;99630.00;;;6.37;91.18
22104;BME280;11218;48.886;9.426;2022-11-12T01:35:05;99624.63;;;6.37;91.51
22104;BME280;11218;48.886;9.426;2022-11-12T01:37:33;99616.81;;;6.36;91.16
22104;BME280;11218;48.886;9.426;2022-11-12T01:40:01;99615.97;;;6.35;91.45
22104;BME280;11218;48.886;9.426;2022-11-12T01:42:31;99616.81;;;6.36;91.29
22104;BME280;11218;48.886;9.426;2022-11-12T01:44:59;99613.47;;;6.34;92.04
22104;BME280;11218;48.886;9.426;2022-11-12T01:47:28;99612.00;;;6.31;91.90
22104;BME280;11218;48.886;9.426;2022-11-12T01:49:59;99607.47;;;6.32;91.83
22104;BME280;11218;48.886;9.426;2022-11-12T01:52:33;99613.00;;;6.30;91.61
22104;BME280;11218;48.886;9.426;2022-11-12T01:55:06;99617.53;;;6.30;91.54
22104;BME280;11218;48.886;9.426;2022-11-12T01:57:37;99617.53;;;6.30;91.53
22104;BME280;11218;48.886;9.426;2022-11-12T02:00:10;99615.88;;;6.29;91.36
22104;BME280;11218;48.886;9.426;2022-11-12T02:02:39;99611.91;;;6.24;91.55
22104;BME280;11218;48.886;9.426;2022-11-12T02:05:09;99599.25;;;6.18;90.38
22104;BME280;11218;48.886;9.426;2022-11-12T02:07:40;99594.91;;;6.03;90.56
22104;BME280;11218;48.886;9.426;2022-11-12T02:10:09;99598.78;;;6.00;90.24
22104;BME280;11218;48.886;9.426;2022-11-12T02:12:37;99599.72;;;5.92;90.72
22104;BME280;11218;48.886;9.426;2022-11-12T02:15:22;99595.72;;;5.88;91.21
22104;BME280;11218;48.886;9.426;2022-11-12T02:17:52;99601.22;;;5.87;91.66
22104;BME280;11218;48.886;9.426;2022-11-12T02:20:20;99594.03;;;5.87;91.14
22104;BME280;11218;48.886;9.426;2022-11-12T02:22:49;99589.53;;;5.88;92.31
22104;BME280;11218;48.886;9.426;2022-11-12T02:25:18;99597.25;;;5.83;91.08
22104;BME280;11218;48.886;9.426;2022-11-12T02:27:50;99602.78;;;5.81;92.12
22104;BME280;11218;48.886;9.426;2022-11-12T02:30:30;99591.44;;;5.79;91.79
22104;BME280;11218;48.886;9.426;2022-11-12T02:32:59;99595.22;;;5.85;91.31
22104;BME280;11218;48.886;9.426;2022-11-12T02:35:26;99583.59;;;5.78;91.25
22104;BME280;11218;48.886;9.426;2022-11-12T02:37:56;99593.66;;;5.76;91.74
22104;BME280;11218;48.886;9.426;2022-11-12T02:40:23;99591.50;;;5.71;91.95
22104;BME280;11218;48.886;9.426;2022-11-12T02:42:51;99592.34;;;5.72;91.88
22104;BME280;11218;48.886;9.426;2022-11-12T02:45:19;99587.00;;;5.72;92.82
22104;BME280;11218;48.886;9.426;2022-11-12T02:47:48;99585.34;;;5.71;91.79
22104;BME280;11218;48.886;9.426;2022-11-12T02:50:15;99594.53;;;5.68;91.94
22104;BME280;11218;48.886;9.426;2022-11-12T02:52:43;99592.69;;;5.69;91.88
22104;BME280;11218;48.886;9.426;2022-11-12T02:55:13;99585.22;;;5.64;92.50
22104;BME280;11218;48.886;9.426;2022-11-12T02:57:41;99591.03;;;5.68;92.33
22104;BME280;11218;48.886;9.426;2022-11-12T03:00:11;99578.50;;;5.68;92.63
22104;BME280;11218;48.886;9.426;2022-11-12T03:02:39;99585.16;;;5.72;93.19
22104;BME280;11218;48.886;9.426;2022-11-12T03:05:09;99585.09;;;5.80;92.54
22104;BME280;11218;48.886;9.426;2022-11-12T03:07:37;99584.19;;;5.88;93.50
22104;BME280;11218;48.886;9.426;2022-11-12T03:10:07;99594.19;;;5.94;92.92
22104;BME280;11218;48.886;9.426;2022-11-12T03:12:36;99589.75;;;6.01;93.00
22104;BME280;11218;48.886;9.426;2022-11-12T03:15:05;99599.72;;;6.07;93.09
22104;BME280;11218;48.886;9.426;2022-11-12T03:17:33;99591.97;;;6.12;92.97
22104;BME280;11218;48.886;9.426;2022-11-12T03:20:04;99593.44;;;6.15;93.46
22104;BME280;11218;48.886;9.426;2022-11-12T03:22:32;99584.59;;;6.14;93.52
22104;BME280;11218;48.886;9.426;2022-11-12T03:25:00;99586.25;;;6.15;92.36
22104;BME280;11218;48.886;9.426;2022-11-12T03:27:28;99585.25;;;6.16;92.71
22104;BME280;11218;48.886;9.426;2022-11-12T03:29:57;99580.72;;;6.17;92.98
22104;BME280;11218;48.886;9.426;2022-11-12T03:32:25;99573.91;;;6.14;93.64
22104;BME280;11218;48.886;9.426;2022-11-12T03:34:53;99577.59;;;6.13;92.82
22104;BME280;11218;48.886;9.426;2022-11-12T03:37:21;99571.88;;;6.16;92.79
22104;BME280;11218;48.886;9.426;2022-11-12T03:39:49;99571.88;;;6.16;92.12
22104;BME280;11218;48.886;9.426;2022-11-12T03:42:16;99577.97;;;6.10;92.13
22104;BME280;11218;48.886;9.426;2022-11-12T03:44:45;99576.28;;;6.09;92.88
22104;BME280;11218;48.886;9.426;2022-11-12T03:47:14;99574.47;;;6.10;92.10
22104;BME280;11218;48.886;9.426;2022-11-12T03:49:42;99577.78;;;6.12;92.12
22104;BME280;11218;48.886;9.426;2022-11-12T03:52:10;99576.59;;;6.14;93.20
22104;BME280;11218;48.886;9.426;2022-11-12T03:54:37;99586.72;;;6.19;92.56
22104;BME280;11218;48.886;9.426;2022-11-12T03:57:05;99579.72;;;6.18;92.35
22104;BME280;11218;48.886;9.426;2022-11-12T03:59:33;99575.19;;;6.18;92.89
22104;BME280;11218;48.886;9.426;2022-11-12T04:02:01;99582.22;;;6.19;92.49
22104;BME280;11218;48.886;9.426;2022-11-12T04:04:30;99577.50;;;6.21;92.53
22104;BME280;11218;48.886;9.426;2022-11-12T04:07:12;99577.88;;;6.18;91.42
22104;BME280;11218;48.886;9.426;2022-11-12T04:09:57;99579.25;;;6.14;91.93
22104;BME280;11218;48.886;9.426;2022-11-12T04:12:25;99582.13;;;6.13;90.88
22104;BME280;11218;48.886;9.426;2022-11-12T04:15:10;99580.81;;;5.94;89.84
22104;BME280;11218;48.886;9.426;2022-11-12T04:17:38;99585.56;;;5.84;90.26
22104;BME280;11218;48.886;9.426;2022-11-12T04:20:25;99586.75;;;5.81;91.33
22104;BME280;11218;48.886;9.426;2022-11-12T04:23:10;99595.59;;;5.82;90.62
22104;BME280;11218;48.886;9.426;2022-11-12T04:25:38;99594.59;;;5.83;91.00
22104;BME280;11218;48.886;9.426;2022-11-12T04:28:24;99591.09;;;5.82;90.78
22104;BME280;11218;48.886;9.426;2022-11-12T04:30:52;99582.88;;;5.84;91.99
22104;BME280;11218;48.886;9.426;2022-11-12T04:33:19;99569.16;;;5.87;91.42
22104;BME280;11218;48.886;9.426;2022-11-12T04:35:48;99580.81;;;5.94;92.00
22104;BME280;11218;48.886;9.426;2022-11-12T04:38:16;99566.41;;;5.95;91.80
22104;BME280;11218;48.886;9.426;2022-11-12T04:40:44;99564.41;;;5.97;91.55
22104;BME280;11218;48.886;9.426;2022-11-12T04:43:30;99577.38;;;6.00;90.68
22104;BME280;11218;48.886;9.426;2022-11-12T04:46:15;99575.25;;;5.96;91.36
22104;BME280;11218;48.886;9.426;2022-11-12T04:48:43;99571.75;;;5.95;92.05
22104;BME280;11218;48.886;9.426;2022-11-12T04:51:12;99584.13;;;5.96;91.42
22104;BME280;11218;48.886;9.426;2022-11-12T04:53:54;99582.91;;;5.99;91.84
22104;BME280;11218;48.886;9.426;2022-11-12T04:56:21;99581.06;;;5.99;91.37
22104;BME280;11218;48.886;9.426;2022-11-12T04:58:49;99573.53;;;6.03;92.86
22104;BME280;11218;48.886;9.426;2022-11-12T05:01:17;99575.19;;;6.04;92.35
22104;BME280;11218;48.886;9.426;2022-11-12T05:03:45;99585.22;;;6.02;91.65
22104;BME280;11218;48.886;9.426;2022-11-12T05:06:14;99590.41;;;6.03;91.83
22104;BME280;11218;48.886;9.426;2022-11-12T05:08:56;99588.56;;;6.04;92.28
22104;BME280;11218;48.886;9.426;2022-11-12T05:11:24;99596.38;;;6.05;92.86
22104;BME280;11218;48.886;9.426;2022-11-12T05:13:52;99597.22;;;6.06;91.76
22104;BME280;11218;48.886;9.426;2022-11-12T05:16:20;99596.19;;;6.07;92.17
22104;BME280;11218;48.886;9.426;2022-11-12T05:18:47;99597.03;;;6.07;92.95
22104;BME280;11218;48.886;9.426;2022-11-12T05:21:17;99585.50;;;6.07;92.83
22104;BME280;11218;48.886;9.426;2022-11-12T05:24:09;99587.16;;;6.08;92.50
22104;BME280;11218;48.886;9.426;2022-11-12T05:26:59;99590.69;;;6.08;91.96
22104;BME280;11218;48.886;9.426;2022-11-12T05:29:28;99590.84;;;6.07;92.84
22104;BME280;11218;48.886;9.426;2022-11-12T05:31:57;99589.00;;;6.07;92.56
22104;BME280;11218;48.886;9.426;2022-11-12T05:34:25;99586.72;;;6.04;92.56
22104;BME280;11218;48.886;9.426;2022-11-12T05:36:55;99582.38;;;6.03;91.82
22104;BME280;11218;48.886;9.426;2022-11-12T05:39:24;99589.09;;;5.99;92.51
22104;BME280;11218;48.886;9.426;2022-11-12T05:41:52;99591.78;;;5.99;92.44
22104;BME280;11218;48.886;9.426;2022-11-12T05:44:38;99586.41;;;5.99;91.78
22104;BME280;11218;48.886;9.426;2022-11-12T05:47:06;99584.56;;;6.00;91.79
22104;BME280;11218;48.886;9.426;2022-11-12T05:49:34;99591.94;;;5.98;91.69
22104;BME280;11218;48.886;9.426;2022-11-12T05:52:04;99591.31;;;5.96;91.50
22104;BME280;11218;48.886;9.426;2022-11-12T05:54:32;99588.63;;;5.96;91.70
22104;BME280;11218;48.886;9.426;2022-11-12T05:57:00;99590.47;;;5.95;92.23
22104;BME280;11218;48.886;9.426;2022-11-12T05:59:28;99591.31;;;5.96;92.28
22104;BME280;11218;48.886;9.426;2022-11-12T06:01:56;99598.13;;;5.98;91.77
22104;BME280;11218;48.886;9.426;2022-11-12T06:04:24;99601.16;;;5.95;91.50
22104;BME280;11218;48.886;9.426;2022-11-12T06:06:52;99603.72;;;5.88;90.85
22104;BME280;11218;48.886;9.426;2022-11-12T06:09:21;99616.59;;;5.85;91.63
22104;BME280;11218;48.886;9.426;2022-11-12T06:11:49;99619.00;;;5.80;91.11
22104;BME280;11218;48.886;9.426;2022-11-12T06:14:17;99616.69;;;5.77;91.04
22104;BME280;11218;48.886;9.426;2022-11-12T06:16:45;99611.88;;;5.72;92.53
22104;BME280;11218;48.886;9.426;2022-11-12T06:19:13;99609.91;;;5.66;92.07
22104;BME280;11218;48.886;9.426;2022-11-12T06:21:40;99608.25;;;5.65;92.57
22104;BME280;11218;48.886;9.426;2022-11-12T06:24:09;99611.94;;;5.64;92.90
22104;BME280;11218;48.886;9.426;2022-11-12T06:26:38;99621.25;;;5.68;93.17
22104;BME280;11218;48.886;9.426;2022-11-12T06:29:07;99613.91;;;5.70;93.36
22104;BME280;11218;48.886;9.426;2022-11-12T06:31:34;99613.72;;;5.72;93.02
22104;BME280;11218;48.886;9.426;2022-11-12T06:34:02;99618.22;;;5.71;92.14
22104;BME280;11218;48.886;9.426;2022-11-12T06:36:31;99621.91;;;5.70;92.43
22104;BME280;11218;48.886;9.426;2022-11-12T06:39:04;99614.47;;;5.80;91.91
22104;BME280;11218;48.886;9.426;2022-11-12T06:41:32;99618.09;;;5.65;90.33
22104;BME280;11218;48.886;9.426;2022-11-12T06:44:04;99624.53;;;5.55;91.20
22104;BME280;11218;48.886;9.426;2022-11-12T06:46:32;99618.66;;;5.60;91.64
22104;BME280;11218;48.886;9.426;2022-11-12T06:49:00;99614.97;;;5.61;90.87
22104;BME280;11218;48.886;9.426;2022-11-12T06:51:28;99614.72;;;5.71;90.72
22104;BME280;11218;48.886;9.426;2022-11-12T06:53:56;99613.53;;;5.73;89.49
22104;BME280;11218;48.886;9.426;2022-11-12T06:56:24;99616.38;;;5.72;89.87
22104;BME280;11218;48.886;9.426;2022-11-12T06:58:52;99609.19;;;5.72;90.04
22104;BME280;11218;48.886;9.426;2022-11-12T07:01:21;99607.72;;;5.70;90.23
22104;BME280;11218;48.886;9.426;2022-11-12T07:03:51;99608.00;;;5.75;89.43
22104;BME280;11218;48.886;9.426;2022-11-12T07:06:20;99608.00;;;5.75;90.63
22104;BME280;11218;48.886;9.426;2022-11-12T07:08:48;99613.66;;;5.80;90.18
22104;BME280;11218;48.886;9.426;2022-11-12T07:11:17;99615.97;;;5.83;89.99
22104;BME280;11218;48.886;9.426;2022-11-12T07:13:46;99615.78;;;5.84;90.37
22104;BME280;11218;48.886;9.426;2022-11-12T07:16:14;99609.06;;;5.88;89.69
22104;BME280;11218;48.886;9.426;2022-11-12T07:18:46;99605.88;;;5.93;90.29
22104;BME280;11218;48.886;9.426;2022-11-12T07:21:16;99608.81;;;5.98;90.34
22104;BME280;11218;48.886;9.426;2022-11-12T07:23:45;99618.13;;;6.02;90.03
22104;BME280;11218;48.886;9.426;2022-11-12T07:26:15;99618.97;;;6.03;90.37
22104;BME280;11218;48.886;9.426;2022-11-12T07:28:44;99615.56;;;6.09;89.92
22104;BME280;11218;48.886;9.426;2022-11-12T07:31:13;99616.84;;;6.13;89.74
22104;BME280;11218;48.886;9.426;2022-11-12T07:33:42;99616.31;;;6.17;89.72
22104;BME280;11218;48.886;9.426;2022-11-12T07:36:15;99613.94;;;6.22;88.83
22104;BME280;11218;48.886;9.426;2022-11-12T07:38:43;99620.00;;;6.16;89.14
22104;BME280;11218;48.886;9.426;2022-11-12T07:41:13;99609.78;;;6.20;89.33
22104;BME280;11218;48.886;9.426;2022-11-12T07:43:44;99618.25;;;6.23;89.45
22104;BME280;11218;48.886;9.426;2022-11-12T07:46:14;99616.41;;;6.24;89.22
22104;BME280;11218;48.886;9.426;2022-11-12T07:48:43;99616.16;;;6.34;88.83
22104;BME280;11218;48.886;9.426;2022-11-12T07:51:15;99604.06;;;6.38;89.07
22104;BME280;11218;48.886;9.426;2022-11-12T07:53:44;99612.66;;;6.33;88.25
22104;BME280;11218;48.886;9.426;2022-11-12T07:56:15;99611.28;;;6.37;89.43
22104;BME280;11218;48.886;9.426;2022-11-12T07:58:44;99615.06;;;6.43;89.12
22104;BME280;11218;48.886;9.426;2022-11-12T08:01:22;99609.78;;;6.49;89.73
22104;BME280;11218;48.886;9.426;2022-11-12T08:03:50;99602.88;;;6.55;89.07
22104;BME280;11218;48.886;9.426;2022-11-12T08:06:20;99606.84;;;6.59;89.38
22104;BME280;11218;48.886;9.426;2022-11-12T08:08:50;99605.75;;;6.68;89.32
22104;BME280;11218;48.886;9.426;2022-11-12T08:11:19;99620.66;;;6.77;89.88
22104;BME280;11218;48.886;9.426;2022-11-12T08:13:48;99615.66;;;6.89;89.23
22104;BME280;11218;48.886;9.426;2022-11-12T08:16:16;99617.59;;;6.95;87.92
22104;BME280;11218;48.886;9.426;2022-11-12T08:18:45;99611.84;;;6.98;88.40
22104;BME280;11218;48.886;9.426;2022-11-12T08:21:14;99615.06;;;7.08;88.73
22104;BME280;11218;48.886;9.426;2022-11-12T08:23:44;99611.72;;;7.21;88.67
22104;BME280;11218;48.886;9.426;2022-11-12T08:26:16;99609.09;;;7.28;88.80
22104;BME280;11218;48.886;9.426;2022-11-12T08:28:44;99609.63;;;7.38;88.85
22104;BME280;11218;48.886;9.426;2022-11-12T08:31:14;99609.09;;;7.49;88.81
22104;BME280;11218;48.886;9.426;2022-11-12T08:33:42;99606.56;;;7.62;88.30
22104;BME280;11218;48.886;9.426;2022-11-12T08:36:12;99601.81;;;7.64;88.79
22104;BME280;11218;48.886;9.426;2022-11-12T08:38:41;99609.34;;;7.75;88.49
22104;BME280;11218;48.886;9.426;2022-11-12T08:41:12;99603.22;;;7.81;88.91
22104;BME280;11218;48.886;9.426;2022-11-12T08:43:40;99597.72;;;7.89;88.46
22104;BME280;11218;48.886;9.426;2022-11-12T08:46:09;99607.03;;;7.94;88.64
22104;BME280;11218;48.886;9.426;2022-11-12T08:48:38;99604.22;;;8.02;88.96
22104;BME280;11218;48.886;9.426;2022-11-12T08:51:07;99593.53;;;8.08;88.45
22104;BME280;11218;48.886;9.426;2022-11-12T08:53:35;99597.09;;;8.15;88.44
22104;BME280;11218;48.886;9.426;2022-11-12T08:56:03;99596.28;;;8.21;88.48
22104;BME280;11218;48.886;9.426;2022-11-12T08:58:32;99598.59;;;8.24;87.87
22104;BME280;11218;48.886;9.426;2022-11-12T09:01:03;99594.91;;;8.32;87.16
22104;BME280;11218;48.886;9.426;2022-11-12T09:03:32;99599.53;;;8.38;87.65
22104;BME280;11218;48.886;9.426;2022-11-12T09:06:01;99598.13;;;8.42;86.68
22104;BME280;11218;48.886;9.426;2022-11-12T09:08:32;99593.22;;;8.52;86.84
22104;BME280;11218;48.886;9.426;2022-11-12T09:11:01;99594.09;;;8.60;85.89
22104;BME280;11218;48.886;9.426;2022-11-12T09:13:30;99595.78;;;8.67;85.93
22104;BME280;11218;48.886;9.426;2022-11-12T09:16:04;99596.66;;;8.74;85.63
22104;BME280;11218;48.886;9.426;2022-11-12T09:18:32;99596.06;;;8.85;86.07
22104;BME280;11218;48.886;9.426;2022-11-12T09:21:04;99597.13;;;8.91;85.48
22104;BME280;11218;48.886;9.426;2022-11-12T09:23:33;99593.81;;;8.89;85.29
22104;BME280;11218;48.886;9.426;2022-11-12T09:26:02;99589.88;;;8.92;85.30
22104;BME280;11218;48.886;9.426;2022-11-12T09:28:31;99587.63;;;8.95;85.40
22104;BME280;11218;48.886;9.426;2022-11-12T09:31:00;99592.59;;;8.98;85.33
22104;BME280;11218;48.886;9.426;2022-11-12T09:33:33;99584.56;;;9.05;85.38
22104;BME280;11218;48.886;9.426;2022-11-12T09:36:02;99580.25;;;9.10;85.18
22104;BME280;11218;48.886;9.426;2022-11-12T09:38:33;99581.28;;;9.16;85.34
22104;BME280;11218;48.886;9.426;2022-11-12T09:41:24;99577.38;;;9.25;85.27
22104;BME280;11218;48.886;9.426;2022-11-12T09:43:57;99579.06;;;9.33;84.12
22104;BME280;11218;48.886;9.426;2022-11-12T09:46:32;99580.53;;;9.42;84.21
22104;BME280;11218;48.886;9.426;2022-11-12T09:49:10;99581.78;;;9.46;84.05
22104;BME280;11218;48.886;9.426;2022-11-12T09:51:42;99579.94;;;9.53;83.72
22104;BME280;11218;48.886;9.426;2022-11-12T09:54:25;99582.41;;;9.61;82.19
22104;BME280;11218;48.886;9.426;2022-11-12T09:56:54;99577.88;;;9.62;83.20
22104;BME280;11218;48.886;9.426;2022-11-12T09:59:25;99571.03;;;9.66;82.78
22104;BME280;11218;48.886;9.426;2022-11-12T10:02:02;99567.50;;;9.72;83.16
22104;BME280;11218;48.886;9.426;2022-11-12T10:04:43;99567.94;;;9.75;83.11
22104;BME280;11218;48.886;9.426;2022-11-12T10:07:20;99571.25;;;9.77;83.05
22104;BME280;11218;48.886;9.426;2022-11-12T10:09:58;99569.16;;;9.86;82.87
22104;BME280;11218;48.886;9.426;2022-11-12T10:12:37;99569.59;;;9.96;81.90
22104;BME280;11218;48.886;9.426;2022-11-12T10:15:31;99569.59;;;10.03;82.11
22104;BME280;11218;48.886;9.426;2022-11-12T10:18:31;99567.91;;;10.15;81.52
22104;BME280;11218;48.886;9.426;2022-11-12T10:21:12;99561.94;;;10.26;81.20
22104;BME280;11218;48.886;9.426;2022-11-12T10:23:48;99559.44;;;10.31;81.14
22104;BME280;11218;48.886;9.426;2022-11-12T10:26:19;99560.03;;;10.40;81.27
22104;BME280;11218;48.886;9.426;2022-11-12T10:28:51;99558.53;;;10.50;81.08
22104;BME280;11218;48.886;9.426;2022-11-12T10:31:22;99555.19;;;10.62;80.29
22104;BME280;11218;48.886;9.426;2022-11-12T10:33:53;99554.56;;;10.66;80.19
22104;BME280;11218;48.886;9.426;2022-11-12T10:36:28;99562.59;;;10.79;80.27
22104;BME280;11218;48.886;9.426;2022-11-12T10:38:59;99552.81;;;10.85;79.37
22104;BME280;11218;48.886;9.426;2022-11-12T10:41:31;99558.97;;;10.99;79.29
22104;BME280;11218;48.886;9.426;2022-11-12T10:44:00;99550.03;;;11.05;78.74
22104;BME280;11218;48.886;9.426;2022-11-12T10:46:30;99545.44;;;11.12;78.45
22104;BME280;11218;48.886;9.426;2022-11-12T10:49:04;99551.97;;;11.23;78.49
22104;BME280;11218;48.886;9.426;2022-11-12T10:51:36;99539.72;;;11.27;78.17
22104;BME280;11218;48.886;9.426;2022-11-12T10:54:29;99547.28;;;11.43;77.40
22104;BME280;11218;48.886;9.426;2022-11-12T10:57:18;99549.50;;;11.52;77.07
22104;BME280;11218;48.886;9.426;2022-11-12T10:59:46;99543.41;;;11.64;76.78
22104;BME280;11218;48.886;9.426;2022-11-12T11:02:32;99534.22;;;11.78;76.96
22104;BME280;11218;48.886;9.426;2022-11-12T11:05:25;99540.66;;;11.95;75.75
22104;BME280;11218;48.886;9.426;2022-11-12T11:07:56;99532.44;;;12.08;75.51
22104;BME280;11218;48.886;9.426;2022-11-12T11:10:26;99531.13;;;12.17;74.58
22104;BME280;11218;48.886;9.426;2022-11-12T11:13:16;99521.69;;;12.27;74.10
22104;BME280;11218;48.886;9.426;2022-11-12T11:15:58;99527.75;;;12.40;74.23
22104;BME280;11218;48.886;9.426;2022-11-12T11:18:27;99519.06;;;12.57;72.50
22104;BME280;11218;48.886;9.426;2022-11-12T11:21:11;99525.66;;;12.61;73.48
22104;BME280;11218;48.886;9.426;2022-11-12T11:23:49;99522.56;;;12.75;71.83
22104;BME280;11218;48.886;9.426;2022-11-12T11:26:28;99525.03;;;12.77;70.90
22104;BME280;11218;48.886;9.426;2022-11-12T11:29:08;99521.72;;;12.75;71.42
22104;BME280;11218;48.886;9.426;2022-11-12T11:31:50;99525.09;;;12.70;71.51
22104;BME280;11218;48.886;9.426;2022-11-12T11:34:28;99516.31;;;12.75;71.76
22104;BME280;11218;48.886;9.426;2022-11-12T11:37:03;99515.88;;;12.78;72.61
22104;BME280;11218;48.886;9.426;2022-11-12T11:39:41;99516.16;;;12.88;72.25
22104;BME280;11218;48.886;9.426;2022-11-12T11:42:31;99509.25;;;12.92;72.45
22104;BME280;11218;48.886;9.426;2022-11-12T11:45:09;99515.75;;;13.03;72.54
22104;BME280;11218;48.886;9.426;2022-11-12T11:47:44;99500.81;;;13.00;71.58
22104;BME280;11218;48.886;9.426;2022-11-12T11:50:28;99496.97;;;13.08;71.06
22104;BME280;11218;48.886;9.426;2022-11-12T11:53:12;99491.66;;;13.01;72.09
22104;BME280;11218;48.886;9.426;2022-11-12T11:55:53;99484.00;;;12.98;71.61
22104;BME280;11218;48.886;9.426;2022-11-12T11:58:37;99489.63;;;12.97;72.03
22104;BME280;11218;48.886;9.426;2022-11-12T12:01:14;99486.78;;;12.92;72.87
22104;BME280;11218;48.886;9.426;2022-11-12T12:04:01;99476.56;;;12.94;74.11
22104;BME280;11218;48.886;9.426;2022-11-12T12:06:37;99487.63;;;12.92;73.50
22104;BME280;11218;48.886;9.426;2022-11-12T12:09:22;99487.94;;;12.84;75.11
22104;BME280;11218;48.886;9.426;2022-11-12T12:12:00;99481.09;;;12.81;75.19
22104;BME280;11218;48.886;9.426;2022-11-12T12:14:43;99492.00;;;12.75;75.57
22104;BME280;11218;48.886;9.426;2022-11-12T12:17:24;99478.41;;;12.81;75.00
22104;BME280;11218;48.886;9.426;2022-11-12T12:20:02;99483.66;;;12.76;75.56
22104;BME280;11218;48.886;9.426;2022-11-12T12:22:36;99481.41;;;12.73;75.79
22104;BME280;11218;48.886;9.426;2022-11-12T12:25:10;99482.78;;;12.64;76.01
22104;BME280;11218;48.886;9.426;2022-11-12T12:27:47;99466.72;;;12.69;76.25
22104;BME280;11218;48.886;9.426;2022-11-12T12:30:19;99466.13;;;12.67;76.55
22104;BME280;11218;48.886;9.426;2022-11-12T12:32:52;99465.91;;;12.69;76.87
22104;BME280;11218;48.886;9.426;2022-11-12T12:35:25;99471.66;;;12.72;77.06
22104;BME280;11218;48.886;9.426;2022-11-12T12:38:01;99467.22;;;12.78;76.20
22104;BME280;11218;48.886;9.426;2022-11-12T12:40:34;99465.13;;;12.80;75.88
22104;BME280;11218;48.886;9.426;2022-11-12T12:43:09;99458.06;;;12.79;76.48
22104;BME280;11218;48.886;9.426;2022-11-12T12:45:41;99447.41;;;12.84;76.14
22104;BME280;11218;48.886;9.426;2022-11-12T12:48:13;99454.91;;;12.82;76.49
22104;BME280;11218;48.886;9.426;2022-11-12T12:50:44;99447.16;;;12.86;77.10
22104;BME280;11218;48.886;9.426;2022-11-12T12:53:29;99450.47;;;12.88;75.92
22104;BME280;11218;48.886;9.426;2022-11-12T12:55:58;99446.03;;;12.93;76.25
22104;BME280;11218;48.886;9.426;2022-11-12T12:58:30;99449.81;;;13.04;75.71
22104;BME280;11218;48.886;9.426;2022-11-12T13:01:01;99449.94;;;13.09;74.82
22104;BME280;11218;48.886;9.426;2022-11-12T13:03:50;99444.78;;;13.07;74.09
22104;BME280;11218;48.886;9.426;2022-11-12T13:06:27;99435.84;;;13.07;74.53
22104;BME280;11218;48.886;9.426;2022-11-12T13:08:59;99432.53;;;13.05;74.89
22104;BME280;11218;48.886;9.426;2022-11-12T13:11:52;99434.41;;;13.04;75.13
22104;BME280;11218;48.886;9.426;2022-11-12T13:15:09;99430.91;;;13.04;74.80
22104;BME280;11218;48.886;9.426;2022-11-12T13:17:43;99435.25;;;13.05;75.66
22104;BME280;11218;48.886;9.426;2022-11-12T13:20:31;99433.13;;;13.07;75.32
22104;BME280;11218;48.886;9.426;2022-11-12T13:23:01;99432.19;;;13.01;75.37
22104;BME280;11218;48.886;9.426;2022-11-12T13:25:30;99427.97;;;13.05;75.32
22104;BME280;11218;48.886;9.426;2022-11-12T13:28:06;99429.84;;;13.05;76.14
22104;BME280;11218;48.886;9.426;2022-11-12T13:30:59;99430.91;;;13.04;75.83
22104;BME280;11218;48.886;9.426;2022-11-12T13:33:30;99422.31;;;13.07;76.60